Western Head, Canada
Current Conditions -  °F | °C
As of 8:00 PM on Monday 20 Oct 2014 (Local Time) from CYZX Reporting Station
Scattered Clouds Scattered Clouds  
Wind Chill: 39°   Ceiling: Unl
Heat Index: 43°   Visibility: 15mi
Dew Point: 34°   Wind: 7mph
Humidity: 70%   Direction: 220°SW
Pressure: 29.93"   Gusts: NA
Location:  43.99°N, 64.68°W
Report Text: CYZX 202300Z 22006KT 15SM SCT035 06/01 A2993 RMK SC3 WNDY HILL 25007KT SLP137
Loading
Personal Weather Stations






























Interactive Weather Map
Tropical Storm Tracking
New forecast layout! Learn more

10-Day Weather Forecast

Advertisements
Track Severe Weather on mobile